Time;durP1;ratioP1;P1;durP2;ratioP2;P2;SDS_P1;SDS_P2;PMS_P1;PMS_P2;Temp;Humidity;BMP_temperature;BMP_pressure;BME280_temperature;BME280_humidity;BME280_pressure;Samples;Min_cycle;Max_cycle;Signal;HPM_P1;HPM_P2
2022/03/15 00:02:12;;;;;;;12.90;8.37;;;;;;;;;;4990431;28;20518;-51
2022/03/15 00:04:37;;;;;;;12.63;8.30;;;;;;;;;;4973461;28;20149;-50
2022/03/15 00:07:03;;;;;;;12.38;8.30;;;;;;;;;;4988390;28;20707;-51
2022/03/15 00:09:28;;;;;;;12.63;7.90;;;;;;;;;;4988371;28;20117;-50
2022/03/15 00:11:54;;;;;;;12.47;8.83;;;;;;;;;;4988853;28;20227;-51
2022/03/15 00:14:19;;;;;;;12.43;8.25;;;;;;;;;;4985154;28;20269;-50
2022/03/15 00:16:45;;;;;;;13.18;7.88;;;;;;;;;;4984161;28;20026;-51
2022/03/15 00:19:10;;;;;;;13.93;8.13;;;;;;;;;;4984253;28;20034;-50
2022/03/15 00:21:37;;;;;;;13.30;8.77;;;;;;;;;;4983959;28;20033;-51
2022/03/15 00:24:04;;;;;;;12.55;8.10;;;;;;;;;;4984361;28;20041;-50
2022/03/15 00:26:37;;;;;;;13.77;8.75;;;;;;;;;;4983841;28;20049;-50
2022/03/15 00:29:02;;;;;;;12.80;8.02;;;;;;;;;;4982293;28;20022;-50
2022/03/15 00:31:27;;;;;;;15.07;8.77;;;;;;;;;;4983835;28;20026;-50
2022/03/15 00:33:53;;;;;;;14.30;8.60;;;;;;;;;;4983341;28;20085;-50
2022/03/15 00:36:18;;;;;;;14.77;9.02;;;;;;;;;;4983249;28;20022;-51
2022/03/15 00:38:44;;;;;;;14.18;8.77;;;;;;;;;;4983379;28;20410;-51
2022/03/15 00:41:09;;;;;;;14.32;9.07;;;;;;;;;;4983211;28;20486;-52
2022/03/15 00:43:34;;;;;;;14.35;8.90;;;;;;;;;;4971567;28;20062;-52
2022/03/15 00:46:00;;;;;;;12.95;8.85;;;;;;;;;;4979053;28;20038;-52
2022/03/15 00:48:25;;;;;;;12.73;8.32;;;;;;;;;;4983216;28;20073;-51
2022/03/15 00:50:50;;;;;;;12.48;8.43;;;;;;;;;;4983078;28;20026;-51
2022/03/15 00:53:16;;;;;;;12.43;8.10;;;;;;;;;;4982811;28;20042;-52
2022/03/15 00:55:41;;;;;;;13.52;8.77;;;;;;;;;;4983020;28;20317;-51
2022/03/15 00:58:07;;;;;;;13.50;8.87;;;;;;;;;;4983555;28;20417;-51
2022/03/15 01:00:32;;;;;;;14.38;8.50;;;;;;;;;;4984149;28;20328;-52
2022/03/15 01:02:58;;;;;;;14.65;9.05;;;;;;;;;;4984141;28;20058;-51
2022/03/15 01:05:23;;;;;;;13.02;8.50;;;;;;;;;;4983515;28;20302;-51
2022/03/15 01:07:48;;;;;;;13.60;8.63;;;;;;;;;;4983835;28;20030;-51
2022/03/15 01:10:14;;;;;;;13.63;8.70;;;;;;;;;;4982407;28;20270;-51
2022/03/15 01:12:39;;;;;;;15.00;9.03;;;;;;;;;;4983037;28;20360;-51
2022/03/15 01:15:06;;;;;;;13.77;8.97;;;;;;;;;;4982919;28;20297;-52
2022/03/15 01:17:32;;;;;;;15.15;9.57;;;;;;;;;;4981629;28;20031;-51
2022/03/15 01:19:57;;;;;;;13.18;8.82;;;;;;;;;;4983189;28;20481;-52
2022/03/15 01:22:22;;;;;;;14.67;8.73;;;;;;;;;;4980577;28;20023;-50
2022/03/15 01:24:47;;;;;;;13.27;8.77;;;;;;;;;;4973628;28;20036;-51
2022/03/15 01:27:15;;;;;;;14.10;8.90;;;;;;;;;;5002180;28;20022;-52
2022/03/15 01:29:40;;;;;;;15.38;9.40;;;;;;;;;;5001940;28;20335;-51
2022/03/15 01:32:06;;;;;;;13.13;8.70;;;;;;;;;;4985730;28;20468;-51
2022/03/15 01:34:31;;;;;;;13.65;8.73;;;;;;;;;;4982491;28;20026;-50
2022/03/15 01:36:58;;;;;;;14.60;9.45;;;;;;;;;;4982887;28;20041;-51
2022/03/15 01:39:23;;;;;;;15.18;9.57;;;;;;;;;;4983102;28;20109;-51
2022/03/15 01:41:49;;;;;;;13.93;9.30;;;;;;;;;;4982750;28;20562;-51
2022/03/15 01:44:15;;;;;;;13.55;8.57;;;;;;;;;;4967087;28;20050;-50
2022/03/15 01:46:40;;;;;;;14.80;8.88;;;;;;;;;;5002628;28;20034;-51
2022/03/15 01:49:05;;;;;;;14.80;9.60;;;;;;;;;;5002474;28;20101;-51
2022/03/15 01:51:30;;;;;;;14.73;9.37;;;;;;;;;;4991862;28;20774;-51
2022/03/15 01:53:55;;;;;;;14.27;9.40;;;;;;;;;;4982722;28;20534;-51
2022/03/15 01:56:21;;;;;;;15.07;9.50;;;;;;;;;;4982808;28;20307;-51
2022/03/15 01:58:46;;;;;;;15.43;9.50;;;;;;;;;;4982771;28;20273;-51
2022/03/15 02:01:11;;;;;;;14.70;9.50;;;;;;;;;;4981648;28;20324;-51
2022/03/15 02:03:36;;;;;;;16.55;9.15;;;;;;;;;;4982829;28;20026;-51
2022/03/15 02:06:05;;;;;;;14.23;9.13;;;;;;;;;;4982488;28;20707;-51
2022/03/15 02:08:30;;;;;;;14.35;9.00;;;;;;;;;;4982529;28;20065;-51
2022/03/15 02:10:56;;;;;;;13.45;9.18;;;;;;;;;;4982718;28;20065;-51
2022/03/15 02:13:21;;;;;;;12.87;8.53;;;;;;;;;;4982737;28;20026;-51
2022/03/15 02:15:46;;;;;;;13.75;9.13;;;;;;;;;;4982611;28;20088;-51
2022/03/15 02:18:11;;;;;;;13.77;8.97;;;;;;;;;;4982549;28;20076;-49
2022/03/15 02:20:37;;;;;;;14.20;9.50;;;;;;;;;;4982871;28;20372;-51
2022/03/15 02:23:02;;;;;;;13.73;8.73;;;;;;;;;;4978778;28;20482;-50
2022/03/15 02:25:28;;;;;;;15.30;9.52;;;;;;;;;;4975748;28;20088;-50
2022/03/15 02:27:53;;;;;;;15.30;9.83;;;;;;;;;;4986239;28;20026;-51
2022/03/15 02:30:18;;;;;;;14.05;9.93;;;;;;;;;;4985776;28;20321;-50
2022/03/15 02:32:47;;;;;;;13.73;8.98;;;;;;;;;;4986045;28;20668;-50
2022/03/15 02:35:13;;;;;;;13.50;8.43;;;;;;;;;;4985956;28;20759;-51
2022/03/15 02:37:38;;;;;;;14.63;9.10;;;;;;;;;;4985941;28;20053;-50
2022/03/15 02:40:03;;;;;;;14.27;8.77;;;;;;;;;;4986041;28;20038;-50
2022/03/15 02:42:29;;;;;;;15.40;9.45;;;;;;;;;;4982936;28;20273;-51
2022/03/15 02:44:54;;;;;;;14.13;9.30;;;;;;;;;;4978201;28;20171;-51
2022/03/15 02:47:20;;;;;;;13.55;9.13;;;;;;;;;;5005469;28;20030;-51
2022/03/15 02:49:45;;;;;;;15.25;9.25;;;;;;;;;;5005785;28;20038;-50
2022/03/15 02:52:10;;;;;;;15.43;9.73;;;;;;;;;;4988872;28;20025;-50
2022/03/15 02:54:41;;;;;;;14.55;9.43;;;;;;;;;;4985043;28;20290;-50
2022/03/15 02:57:08;;;;;;;14.52;9.07;;;;;;;;;;4985619;28;20060;-50
2022/03/15 02:59:33;;;;;;;13.68;9.18;;;;;;;;;;4985373;28;20108;-50
2022/03/15 03:01:59;;;;;;;14.20;8.87;;;;;;;;;;4985610;28;20454;-50
2022/03/15 03:04:24;;;;;;;14.75;9.80;;;;;;;;;;4969091;28;20270;-49
2022/03/15 03:06:49;;;;;;;14.30;9.40;;;;;;;;;;4985332;28;20037;-50
2022/03/15 03:09:16;;;;;;;15.20;9.27;;;;;;;;;;4985098;28;20029;-51
2022/03/15 03:11:41;;;;;;;15.07;9.07;;;;;;;;;;4985061;28;20098;-51
2022/03/15 03:14:08;;;;;;;13.77;8.68;;;;;;;;;;4985246;28;20863;-50
2022/03/15 03:16:34;;;;;;;16.13;9.65;;;;;;;;;;4985111;28;20069;-50
2022/03/15 03:19:00;;;;;;;15.02;9.27;;;;;;;;;;4985188;28;20058;-51
2022/03/15 03:21:25;;;;;;;13.65;9.13;;;;;;;;;;4985027;28;20085;-51
2022/03/15 03:23:53;;;;;;;14.65;8.82;;;;;;;;;;4984658;28;20030;-50
2022/03/15 03:26:19;;;;;;;13.20;8.35;;;;;;;;;;4985059;28;20417;-51
2022/03/15 03:28:44;;;;;;;12.73;9.10;;;;;;;;;;4985292;28;20014;-51
2022/03/15 03:31:09;;;;;;;12.97;8.57;;;;;;;;;;4985469;28;20410;-50
2022/03/15 03:33:35;;;;;;;15.10;9.47;;;;;;;;;;4984654;28;20293;-50
2022/03/15 03:36:00;;;;;;;13.23;8.50;;;;;;;;;;4985233;28;20274;-51
2022/03/15 03:38:25;;;;;;;14.85;9.43;;;;;;;;;;4984966;28;20588;-50
2022/03/15 03:40:50;;;;;;;14.17;9.00;;;;;;;;;;4984867;28;20030;-51
2022/03/15 03:43:16;;;;;;;13.60;8.87;;;;;;;;;;4976101;28;20717;-50
2022/03/15 03:45:41;;;;;;;15.00;9.18;;;;;;;;;;4976840;28;20305;-50
2022/03/15 03:48:07;;;;;;;14.55;8.88;;;;;;;;;;4984502;28;20120;-50
2022/03/15 03:50:33;;;;;;;14.43;8.68;;;;;;;;;;4984532;28;20065;-51
2022/03/15 03:52:58;;;;;;;13.95;8.75;;;;;;;;;;4984258;28;20018;-50
2022/03/15 03:55:23;;;;;;;15.55;9.77;;;;;;;;;;4984675;28;20486;-50
2022/03/15 03:57:48;;;;;;;13.70;9.25;;;;;;;;;;4984436;28;20084;-50
2022/03/15 04:00:14;;;;;;;14.75;9.07;;;;;;;;;;4982519;28;20073;-51
2022/03/15 04:02:39;;;;;;;13.73;9.20;;;;;;;;;;4983961;28;20497;-50
2022/03/15 04:05:05;;;;;;;14.55;9.30;;;;;;;;;;4990838;28;20026;-50
2022/03/15 04:07:30;;;;;;;14.18;8.95;;;;;;;;;;5003591;28;20092;-51
2022/03/15 04:09:55;;;;;;;13.95;9.23;;;;;;;;;;5002078;28;20449;-50
2022/03/15 04:12:23;;;;;;;14.33;9.10;;;;;;;;;;4985929;28;20026;-49
2022/03/15 04:14:48;;;;;;;15.65;10.05;;;;;;;;;;4983169;28;20323;-51
2022/03/15 04:17:14;;;;;;;14.15;8.82;;;;;;;;;;4982659;28;20526;-51
2022/03/15 04:19:39;;;;;;;13.48;9.25;;;;;;;;;;4983519;28;20033;-51
2022/03/15 04:22:04;;;;;;;14.60;9.70;;;;;;;;;;4983752;28;20391;-50
2022/03/15 04:24:31;;;;;;;14.43;9.13;;;;;;;;;;4967163;28;21060;-51
2022/03/15 04:26:57;;;;;;;15.80;8.88;;;;;;;;;;4983700;28;20061;-51
2022/03/15 04:29:23;;;;;;;12.57;8.32;;;;;;;;;;4983793;28;20294;-50
2022/03/15 04:31:48;;;;;;;14.05;9.50;;;;;;;;;;4983804;28;20604;-49
2022/03/15 04:34:13;;;;;;;13.90;8.60;;;;;;;;;;4982382;28;20430;-49
2022/03/15 04:36:41;;;;;;;13.97;8.33;;;;;;;;;;4983825;28;20032;-51
2022/03/15 04:39:06;;;;;;;12.93;9.02;;;;;;;;;;4983645;28;20261;-51
2022/03/15 04:41:31;;;;;;;13.70;8.35;;;;;;;;;;4983631;28;20041;-50
2022/03/15 04:43:57;;;;;;;11.97;8.43;;;;;;;;;;4967731;28;20031;-51
2022/03/15 04:46:23;;;;;;;12.57;8.23;;;;;;;;;;4998447;28;20324;-51
2022/03/15 04:48:48;;;;;;;10.80;7.65;;;;;;;;;;5001708;28;20317;-50
2022/03/15 04:51:14;;;;;;;11.93;8.37;;;;;;;;;;4995166;28;20513;-51
2022/03/15 04:53:39;;;;;;;11.73;8.32;;;;;;;;;;4983392;28;20265;-50
2022/03/15 04:56:04;;;;;;;11.33;7.90;;;;;;;;;;4983542;28;20041;-50
2022/03/15 04:58:29;;;;;;;13.33;8.90;;;;;;;;;;4982046;28;20312;-51
2022/03/15 05:00:55;;;;;;;14.30;8.67;;;;;;;;;;4982992;28;20796;-49
2022/03/15 05:03:20;;;;;;;13.77;8.77;;;;;;;;;;4982666;28;20276;-51
2022/03/15 05:05:45;;;;;;;13.07;8.37;;;;;;;;;;4982645;28;20042;-51
2022/03/15 05:08:10;;;;;;;12.20;8.10;;;;;;;;;;4998915;28;20026;-50
2022/03/15 05:13:20;;;;;;;13.18;8.85;;;;;;;;;;4965230;28;20369;-51
2022/03/15 05:15:46;;;;;;;14.88;8.82;;;;;;;;;;4967996;28;20023;-50
2022/03/15 05:18:11;;;;;;;14.23;8.52;;;;;;;;;;4965531;28;20033;-49
2022/03/15 05:20:36;;;;;;;12.63;8.00;;;;;;;;;;4968403;28;20250;-50
2022/03/15 05:23:02;;;;;;;13.52;8.50;;;;;;;;;;4979905;28;20305;-50
2022/03/15 05:25:27;;;;;;;12.70;8.27;;;;;;;;;;4974132;28;20069;-52
2022/03/15 05:27:52;;;;;;;13.65;9.00;;;;;;;;;;4974005;28;20038;-52
2022/03/15 05:30:17;;;;;;;13.27;8.80;;;;;;;;;;4979804;28;20022;-50
2022/03/15 05:32:43;;;;;;;12.13;8.40;;;;;;;;;;4982784;28;20026;-50
2022/03/15 05:35:08;;;;;;;12.80;8.13;;;;;;;;;;4982868;28;20030;-51
2022/03/15 05:37:33;;;;;;;12.40;7.85;;;;;;;;;;4981547;28;20070;-51
2022/03/15 05:40:00;;;;;;;13.00;8.40;;;;;;;;;;4982006;28;20018;-51
2022/03/15 05:42:26;;;;;;;11.75;8.27;;;;;;;;;;4979844;28;20365;-51
2022/03/15 05:44:51;;;;;;;12.20;8.30;;;;;;;;;;4970825;28;20025;-51
2022/03/15 05:47:17;;;;;;;12.47;8.03;;;;;;;;;;4976914;28;20026;-51
2022/03/15 05:49:42;;;;;;;11.90;8.18;;;;;;;;;;4982458;28;20303;-53
2022/03/15 05:52:08;;;;;;;13.52;8.48;;;;;;;;;;4983030;28;20030;-52
2022/03/15 05:54:34;;;;;;;11.60;8.13;;;;;;;;;;4980483;28;20053;-51
2022/03/15 05:56:59;;;;;;;12.80;8.40;;;;;;;;;;4987086;28;20029;-51
2022/03/15 05:59:24;;;;;;;13.33;8.80;;;;;;;;;;4988265;28;20514;-50
2022/03/15 06:01:49;;;;;;;10.70;7.73;;;;;;;;;;4988677;28;20273;-52
2022/03/15 06:04:14;;;;;;;13.00;8.20;;;;;;;;;;4990810;28;20474;-52
2022/03/15 06:06:40;;;;;;;14.33;9.20;;;;;;;;;;4996345;28;20046;-50
2022/03/15 06:09:05;;;;;;;10.98;7.78;;;;;;;;;;4995435;28;20441;-52
2022/03/15 06:11:32;;;;;;;13.07;8.60;;;;;;;;;;4992633;28;20093;-51
2022/03/15 06:13:57;;;;;;;13.18;8.43;;;;;;;;;;4991680;28;20441;-52
2022/03/15 06:16:22;;;;;;;13.18;8.00;;;;;;;;;;4994352;28;20030;-51
2022/03/15 06:18:47;;;;;;;13.47;7.73;;;;;;;;;;4994396;28;20019;-51
2022/03/15 06:21:13;;;;;;;14.27;8.20;;;;;;;;;;4992659;28;20026;-52
2022/03/15 06:23:38;;;;;;;12.13;8.17;;;;;;;;;;4988678;28;20764;-51
2022/03/15 06:26:03;;;;;;;12.70;8.60;;;;;;;;;;4986379;28;20041;-51
2022/03/15 06:28:29;;;;;;;12.30;7.93;;;;;;;;;;4989238;28;20408;-50
2022/03/15 06:30:55;;;;;;;10.13;7.13;;;;;;;;;;4986025;28;20276;-50
2022/03/15 06:33:22;;;;;;;10.60;8.07;;;;;;;;;;4985407;28;20018;-52
2022/03/15 06:35:47;;;;;;;11.82;7.72;;;;;;;;;;4983890;28;20026;-50
2022/03/15 06:38:12;;;;;;;12.50;7.90;;;;;;;;;;4985040;28;20446;-51
2022/03/15 06:40:40;;;;;;;11.17;7.50;;;;;;;;;;4984941;28;20405;-50
2022/03/15 06:43:06;;;;;;;10.73;7.05;;;;;;;;;;4985508;28;20022;-52
2022/03/15 06:45:32;;;;;;;10.70;7.50;;;;;;;;;;4969651;28;20121;-50
2022/03/15 06:47:58;;;;;;;12.25;8.20;;;;;;;;;;4965825;28;20019;-51
2022/03/15 06:50:23;;;;;;;11.93;7.40;;;;;;;;;;4966171;28;20398;-50
2022/03/15 06:52:49;;;;;;;11.15;7.25;;;;;;;;;;4985344;28;20748;-52
2022/03/15 06:55:15;;;;;;;11.90;7.60;;;;;;;;;;4984699;28;20054;-52
2022/03/15 06:57:40;;;;;;;10.55;7.00;;;;;;;;;;4985127;28;20530;-52
2022/03/15 07:00:07;;;;;;;10.68;7.32;;;;;;;;;;4983073;28;20369;-50
2022/03/15 07:02:32;;;;;;;11.15;7.28;;;;;;;;;;4966108;28;20230;-50
2022/03/15 07:04:58;;;;;;;13.87;7.70;;;;;;;;;;4974297;28;20756;-50
2022/03/15 07:07:23;;;;;;;11.20;7.13;;;;;;;;;;4973647;28;20269;-51
2022/03/15 07:09:48;;;;;;;11.45;7.15;;;;;;;;;;4976531;28;20274;-50
2022/03/15 07:12:13;;;;;;;11.85;8.10;;;;;;;;;;4964947;28;20035;-49
2022/03/15 07:14:39;;;;;;;11.20;7.30;;;;;;;;;;4970377;28;20029;-50
2022/03/15 07:17:04;;;;;;;11.90;7.63;;;;;;;;;;4963053;28;20341;-51
2022/03/15 07:19:29;;;;;;;9.73;6.97;;;;;;;;;;4966327;28;20474;-51
2022/03/15 07:21:55;;;;;;;14.57;8.38;;;;;;;;;;4992118;28;20501;-50
2022/03/15 07:24:20;;;;;;;12.32;8.55;;;;;;;;;;4987919;28;20029;-50
2022/03/15 07:26:45;;;;;;;11.43;8.00;;;;;;;;;;4985009;28;20161;-51
2022/03/15 07:29:11;;;;;;;11.30;7.80;;;;;;;;;;4985186;28;20485;-50
2022/03/15 07:31:36;;;;;;;11.20;7.87;;;;;;;;;;4985062;28;20943;-51
2022/03/15 07:34:01;;;;;;;14.47;8.37;;;;;;;;;;4984841;28;20058;-50
2022/03/15 07:36:26;;;;;;;10.90;7.73;;;;;;;;;;4984752;28;20328;-51
2022/03/15 07:38:52;;;;;;;12.85;7.85;;;;;;;;;;4984695;28;20026;-50
2022/03/15 07:41:21;;;;;;;12.00;7.13;;;;;;;;;;4984760;28;20502;-50
2022/03/15 07:43:46;;;;;;;11.25;8.18;;;;;;;;;;4967718;28;20281;-49
2022/03/15 07:46:11;;;;;;;11.03;7.47;;;;;;;;;;4982979;28;20046;-51
2022/03/15 07:48:37;;;;;;;12.07;8.13;;;;;;;;;;4983990;28;20369;-51
2022/03/15 07:51:02;;;;;;;12.53;7.97;;;;;;;;;;4983862;28;20022;-51
2022/03/15 07:53:28;;;;;;;12.80;7.37;;;;;;;;;;4983749;28;20121;-51
2022/03/15 07:55:53;;;;;;;12.50;7.57;;;;;;;;;;4983822;28;20701;-50
2022/03/15 07:58:18;;;;;;;12.57;7.78;;;;;;;;;;4981084;28;20494;-49
2022/03/15 08:00:45;;;;;;;13.57;8.03;;;;;;;;;;4981902;28;20026;-51
2022/03/15 08:03:10;;;;;;;11.82;7.60;;;;;;;;;;4982942;28;20352;-51
2022/03/15 08:05:35;;;;;;;13.33;8.20;;;;;;;;;;4982327;28;20577;-51
2022/03/15 08:08:00;;;;;;;12.63;7.67;;;;;;;;;;4983411;28;20528;-51
2022/03/15 08:10:26;;;;;;;11.77;7.95;;;;;;;;;;4983179;28;20274;-50
2022/03/15 08:12:51;;;;;;;13.10;8.10;;;;;;;;;;4983862;28;20030;-51
2022/03/15 08:15:16;;;;;;;13.37;8.43;;;;;;;;;;4984303;28;20356;-50
2022/03/15 08:17:41;;;;;;;13.83;8.93;;;;;;;;;;4983800;28;20050;-50
2022/03/15 08:20:07;;;;;;;12.87;8.23;;;;;;;;;;4984500;28;20041;-51
2022/03/15 08:22:33;;;;;;;12.70;8.05;;;;;;;;;;4980440;28;20269;-49
2022/03/15 08:24:58;;;;;;;13.00;8.32;;;;;;;;;;4975428;28;20041;-49
2022/03/15 08:27:24;;;;;;;12.95;7.97;;;;;;;;;;5002330;28;20049;-50
2022/03/15 08:29:49;;;;;;;10.90;8.30;;;;;;;;;;5003771;28;20084;-49
2022/03/15 08:32:14;;;;;;;11.43;8.10;;;;;;;;;;4987847;28;20029;-50
2022/03/15 08:34:41;;;;;;;12.30;8.05;;;;;;;;;;4974855;28;20101;-49
2022/03/15 08:37:06;;;;;;;12.13;8.43;;;;;;;;;;4983545;28;20778;-49
2022/03/15 08:39:31;;;;;;;14.10;9.30;;;;;;;;;;4983811;28;20038;-50
2022/03/15 08:41:56;;;;;;;12.98;8.18;;;;;;;;;;4983597;28;20627;-53
2022/03/15 08:44:22;;;;;;;14.67;8.37;;;;;;;;;;4967727;28;20034;-51
2022/03/15 08:46:48;;;;;;;13.15;8.38;;;;;;;;;;4983886;28;20813;-50
2022/03/15 08:49:14;;;;;;;12.82;8.50;;;;;;;;;;4982719;28;20026;-49
2022/03/15 08:51:39;;;;;;;13.38;9.13;;;;;;;;;;4972555;28;20034;-49
2022/03/15 08:54:05;;;;;;;12.67;8.37;;;;;;;;;;4978759;28;20549;-50
2022/03/15 08:56:31;;;;;;;12.98;8.80;;;;;;;;;;4985026;28;20412;-50
2022/03/15 08:58:56;;;;;;;13.38;9.50;;;;;;;;;;4983734;28;20103;-49
2022/03/15 09:01:22;;;;;;;14.85;8.85;;;;;;;;;;4981413;28;20045;-49
2022/03/15 09:03:47;;;;;;;14.83;9.17;;;;;;;;;;4982687;28;20033;-49
2022/03/15 09:06:12;;;;;;;14.20;9.53;;;;;;;;;;4983621;28;20362;-49
2022/03/15 09:08:37;;;;;;;14.90;9.40;;;;;;;;;;4983985;28;20626;-50
2022/03/15 09:11:03;;;;;;;14.13;9.20;;;;;;;;;;4983562;28;20257;-50
2022/03/15 09:13:30;;;;;;;15.52;10.20;;;;;;;;;;4983240;28;20164;-49
2022/03/15 09:15:56;;;;;;;15.57;10.15;;;;;;;;;;4982996;28;20105;-49
2022/03/15 09:18:21;;;;;;;14.25;9.23;;;;;;;;;;4982521;28;20841;-49
2022/03/15 09:20:47;;;;;;;16.52;10.25;;;;;;;;;;4983133;28;20482;-49
2022/03/15 09:23:12;;;;;;;14.77;9.82;;;;;;;;;;4981593;28;20056;-49
2022/03/15 09:25:37;;;;;;;16.40;10.10;;;;;;;;;;4983038;28;20041;-49
2022/03/15 09:28:04;;;;;;;17.55;10.40;;;;;;;;;;4982840;28;20478;-50
2022/03/15 09:30:30;;;;;;;15.45;10.13;;;;;;;;;;4985305;28;20034;-48
2022/03/15 09:32:57;;;;;;;16.27;10.32;;;;;;;;;;4986945;28;20046;-50
2022/03/15 09:35:22;;;;;;;17.73;10.88;;;;;;;;;;4987853;28;20033;-49
2022/03/15 09:37:49;;;;;;;15.93;10.40;;;;;;;;;;4985511;28;20101;-49
2022/03/15 09:40:14;;;;;;;16.90;10.30;;;;;;;;;;4986309;28;20120;-48
2022/03/15 09:42:39;;;;;;;16.27;11.40;;;;;;;;;;4987337;28;20023;-49
2022/03/15 09:45:05;;;;;;;18.55;10.75;;;;;;;;;;4983383;28;20293;-49
2022/03/15 09:47:34;;;;;;;16.48;10.73;;;;;;;;;;4979631;28;20089;-49
2022/03/15 09:50:00;;;;;;;18.35;11.23;;;;;;;;;;4989851;28;20026;-49
2022/03/15 09:52:25;;;;;;;19.05;11.32;;;;;;;;;;4987695;28;20088;-50
2022/03/15 09:54:50;;;;;;;18.10;11.17;;;;;;;;;;4986500;28;20054;-49
2022/03/15 09:57:15;;;;;;;21.60;13.23;;;;;;;;;;4988367;28;20273;-49
2022/03/15 09:59:41;;;;;;;20.60;13.17;;;;;;;;;;4989930;28;20560;-49
2022/03/15 10:02:06;;;;;;;22.53;14.17;;;;;;;;;;4989320;28;20269;-49
2022/03/15 10:04:31;;;;;;;21.13;13.77;;;;;;;;;;4974565;28;20281;-50
2022/03/15 10:06:57;;;;;;;22.77;14.20;;;;;;;;;;4996530;28;20056;-51
2022/03/15 10:09:22;;;;;;;20.70;13.85;;;;;;;;;;4988504;28;20422;-49
2022/03/15 10:11:48;;;;;;;25.25;14.75;;;;;;;;;;4987773;28;20093;-48
2022/03/15 10:14:14;;;;;;;23.15;13.75;;;;;;;;;;4988527;28;20518;-49
2022/03/15 10:16:41;;;;;;;24.48;15.38;;;;;;;;;;4988387;28;20030;-49
2022/03/15 10:19:06;;;;;;;22.85;14.85;;;;;;;;;;4988651;28;20062;-50
2022/03/15 10:21:44;;;;;;;25.65;16.33;;;;;;;;;;4989001;28;20101;-50
2022/03/15 10:24:09;;;;;;;24.35;15.68;;;;;;;;;;4974446;28;20494;-49
2022/03/15 10:26:38;;;;;;;26.13;16.10;;;;;;;;;;5005400;28;20095;-50
2022/03/15 10:29:04;;;;;;;29.00;16.80;;;;;;;;;;4997013;28;20010;-50
2022/03/15 10:31:29;;;;;;;24.40;15.15;;;;;;;;;;4989208;28;20038;-50
2022/03/15 10:33:54;;;;;;;23.95;15.95;;;;;;;;;;4989174;28;20038;-51
2022/03/15 10:36:20;;;;;;;25.33;16.07;;;;;;;;;;4988936;28;20041;-49
2022/03/15 10:38:49;;;;;;;25.80;16.05;;;;;;;;;;4988906;28;20269;-49
2022/03/15 10:41:15;;;;;;;25.27;15.48;;;;;;;;;;4988447;28;20458;-50
2022/03/15 10:43:41;;;;;;;28.38;16.73;;;;;;;;;;4974437;28;20054;-50
2022/03/15 10:46:06;;;;;;;26.70;16.63;;;;;;;;;;4982835;28;20038;-50
2022/03/15 10:48:32;;;;;;;25.63;15.80;;;;;;;;;;4984574;28;20030;-51
2022/03/15 10:50:59;;;;;;;26.10;16.77;;;;;;;;;;4986224;28;20919;-51
2022/03/15 10:53:25;;;;;;;26.77;16.25;;;;;;;;;;4985795;28;20054;-51
2022/03/15 10:55:51;;;;;;;25.08;15.90;;;;;;;;;;4985848;28;20606;-51
2022/03/15 10:58:20;;;;;;;25.85;16.48;;;;;;;;;;4985935;28;20027;-51
2022/03/15 11:00:46;;;;;;;23.08;15.00;;;;;;;;;;4985739;28;20030;-51
2022/03/15 11:03:23;;;;;;;24.20;15.52;;;;;;;;;;4979378;28;20085;-50
2022/03/15 11:05:50;;;;;;;23.42;14.38;;;;;;;;;;4977782;28;20050;-50
2022/03/15 11:08:15;;;;;;;24.27;14.88;;;;;;;;;;4985622;28;20026;-51
2022/03/15 11:10:42;;;;;;;21.70;13.88;;;;;;;;;;4985620;28;20419;-50
2022/03/15 11:13:14;;;;;;;21.95;14.45;;;;;;;;;;4985608;28;20510;-49
2022/03/15 11:15:42;;;;;;;24.85;14.60;;;;;;;;;;4984530;28;20026;-51
2022/03/15 11:18:07;;;;;;;22.75;13.70;;;;;;;;;;4985459;28;20569;-50
2022/03/15 11:20:35;;;;;;;23.45;14.55;;;;;;;;;;5002911;28;20068;-49
2022/03/15 11:23:00;;;;;;;23.23;14.50;;;;;;;;;;4996508;28;20018;-49
2022/03/15 11:25:30;;;;;;;22.70;13.95;;;;;;;;;;4993779;28;20049;-49
2022/03/15 11:27:55;;;;;;;23.67;14.57;;;;;;;;;;5004984;28;20169;-49
2022/03/15 11:30:20;;;;;;;20.50;13.80;;;;;;;;;;5004825;28;20799;-50
2022/03/15 11:32:46;;;;;;;20.52;13.25;;;;;;;;;;4985144;28;20265;-49
2022/03/15 11:35:12;;;;;;;20.08;12.68;;;;;;;;;;4985122;28;20018;-49
2022/03/15 11:37:37;;;;;;;21.77;13.38;;;;;;;;;;4985162;28;20073;-49
2022/03/15 11:40:06;;;;;;;18.77;13.13;;;;;;;;;;4985111;28;20291;-49
2022/03/15 11:42:32;;;;;;;19.92;13.63;;;;;;;;;;4985846;28;20034;-50
2022/03/15 11:45:16;;;;;;;20.55;12.52;;;;;;;;;;4984837;28;20034;-51
2022/03/15 11:47:41;;;;;;;19.42;12.80;;;;;;;;;;4986142;28;20034;-51
2022/03/15 11:50:12;;;;;;;19.47;12.50;;;;;;;;;;4986027;28;20514;-51
2022/03/15 11:52:47;;;;;;;19.67;12.52;;;;;;;;;;4986566;28;20030;-50
2022/03/15 11:55:16;;;;;;;18.58;12.27;;;;;;;;;;4987266;28;20058;-50
2022/03/15 11:57:42;;;;;;;18.77;12.40;;;;;;;;;;4989121;28;20038;-52
2022/03/15 12:00:07;;;;;;;19.83;12.40;;;;;;;;;;4989970;28;20041;-52
2022/03/15 12:02:39;;;;;;;21.30;13.90;;;;;;;;;;4986688;28;20080;-50
2022/03/15 12:05:20;;;;;;;19.67;12.65;;;;;;;;;;4989377;28;20042;-51
2022/03/15 12:08:12;;;;;;;21.25;13.02;;;;;;;;;;4990839;28;20026;-52
2022/03/15 12:10:38;;;;;;;20.10;12.73;;;;;;;;;;4989670;28;21011;-50
2022/03/15 12:13:07;;;;;;;19.70;13.63;;;;;;;;;;4988255;28;20096;-50
2022/03/15 12:15:38;;;;;;;20.73;12.63;;;;;;;;;;4987212;28;20026;-51
2022/03/15 12:18:37;;;;;;;21.95;13.15;;;;;;;;;;4987946;28;20277;-51
2022/03/15 12:21:04;;;;;;;19.98;13.18;;;;;;;;;;4985648;28;20121;-50
2022/03/15 12:23:42;;;;;;;19.48;13.20;;;;;;;;;;4976146;28;20512;-49
2022/03/15 12:26:18;;;;;;;20.42;13.02;;;;;;;;;;4978090;28;20023;-50
2022/03/15 12:28:52;;;;;;;19.52;13.15;;;;;;;;;;4983372;28;20065;-51
2022/03/15 12:31:20;;;;;;;18.80;13.48;;;;;;;;;;4982179;28;20034;-51
2022/03/15 12:33:58;;;;;;;20.67;13.73;;;;;;;;;;4983302;28;20034;-51
2022/03/15 12:36:24;;;;;;;20.42;13.48;;;;;;;;;;4981591;28;20077;-51
2022/03/15 12:38:49;;;;;;;20.23;12.77;;;;;;;;;;4965600;28;20023;-50
2022/03/15 12:41:23;;;;;;;20.30;13.37;;;;;;;;;;4983430;28;20285;-49
2022/03/15 12:43:52;;;;;;;20.08;13.05;;;;;;;;;;4981849;28;20320;-50
2022/03/15 12:46:18;;;;;;;19.60;12.88;;;;;;;;;;4982639;28;20041;-51
2022/03/15 12:48:43;;;;;;;20.05;13.20;;;;;;;;;;4982744;28;20026;-52
2022/03/15 12:51:18;;;;;;;22.10;13.15;;;;;;;;;;4982910;28;20077;-50
2022/03/15 12:53:43;;;;;;;20.30;13.00;;;;;;;;;;4973441;28;20057;-49
2022/03/15 12:56:11;;;;;;;19.77;12.38;;;;;;;;;;4983157;28;20101;-49
2022/03/15 12:58:40;;;;;;;20.25;12.75;;;;;;;;;;4976370;28;20018;-50
2022/03/15 13:01:08;;;;;;;18.63;12.30;;;;;;;;;;4963449;28;20089;-52
2022/03/15 13:03:35;;;;;;;20.33;13.13;;;;;;;;;;4962882;28;20019;-51
2022/03/15 13:06:01;;;;;;;20.08;11.80;;;;;;;;;;4962929;28;20033;-50
2022/03/15 13:08:26;;;;;;;20.00;12.82;;;;;;;;;;4964170;28;20015;-50
2022/03/15 13:10:52;;;;;;;22.07;13.97;;;;;;;;;;4966579;28;20568;-50
2022/03/15 13:13:29;;;;;;;18.73;12.43;;;;;;;;;;4963713;28;20693;-50
2022/03/15 13:16:03;;;;;;;22.10;13.20;;;;;;;;;;4963830;28;20054;-50
2022/03/15 13:18:30;;;;;;;19.40;13.40;;;;;;;;;;4964002;28;20011;-50
2022/03/15 13:20:59;;;;;;;19.58;12.70;;;;;;;;;;4963202;28;20023;-50
2022/03/15 13:23:24;;;;;;;19.77;12.93;;;;;;;;;;4962816;28;20149;-50
2022/03/15 13:25:50;;;;;;;21.00;13.80;;;;;;;;;;4962182;28;20039;-52
2022/03/15 13:28:22;;;;;;;19.48;13.25;;;;;;;;;;4966967;28;20073;-51
2022/03/15 13:30:49;;;;;;;19.70;13.43;;;;;;;;;;4970863;28;20568;-50
2022/03/15 13:33:27;;;;;;;21.48;12.95;;;;;;;;;;4968627;28;20027;-51
2022/03/15 13:36:05;;;;;;;20.30;12.63;;;;;;;;;;4968203;28;20061;-50
2022/03/15 13:38:31;;;;;;;11.27;6.72;;;;;;;;;;4965199;28;20031;-51
2022/03/15 13:40:56;;;;;;;13.38;9.25;;;;;;;;;;4965625;28;20063;-50
2022/03/15 13:43:22;;;;;;;19.55;12.82;;;;;;;;;;4962920;28;20033;-50
2022/03/15 13:45:48;;;;;;;19.05;12.75;;;;;;;;;;4963782;28;20030;-51
2022/03/15 13:48:13;;;;;;;25.50;14.53;;;;;;;;;;4963663;28;20093;-50
2022/03/15 13:50:40;;;;;;;22.50;13.77;;;;;;;;;;4962906;28;20836;-50
2022/03/15 13:53:18;;;;;;;22.38;14.57;;;;;;;;;;4963585;28;20307;-50
2022/03/15 13:55:43;;;;;;;24.20;15.73;;;;;;;;;;4962158;28;20148;-50
2022/03/15 13:58:09;;;;;;;24.58;15.82;;;;;;;;;;4962279;28;20446;-51
2022/03/15 14:00:35;;;;;;;25.80;16.00;;;;;;;;;;4962937;28;20023;-50
2022/03/15 14:03:05;;;;;;;24.17;15.10;;;;;;;;;;4962734;28;20278;-52
2022/03/15 14:05:31;;;;;;;26.10;16.35;;;;;;;;;;4964042;28;20077;-50
2022/03/15 14:08:00;;;;;;;25.70;15.90;;;;;;;;;;4963989;28;20054;-52
2022/03/15 14:10:25;;;;;;;25.03;15.90;;;;;;;;;;4974900;28;20060;-51
2022/03/15 14:12:53;;;;;;;26.37;16.10;;;;;;;;;;4965115;28;20370;-52
2022/03/15 14:15:19;;;;;;;26.55;17.20;;;;;;;;;;4982494;28;20433;-52
2022/03/15 14:17:54;;;;;;;24.83;16.30;;;;;;;;;;4977368;28;20046;-51
2022/03/15 14:20:19;;;;;;;26.48;16.98;;;;;;;;;;4960989;28;20030;-50
2022/03/15 14:22:48;;;;;;;27.67;16.80;;;;;;;;;;4982864;28;20033;-52
2022/03/15 14:25:20;;;;;;;29.27;17.58;;;;;;;;;;4978489;28;20030;-51